Time;durP1;ratioP1;P1;durP2;ratioP2;P2;SDS_P1;SDS_P2;PMS_P1;PMS_P2;Temp;Humidity;BMP_temperature;BMP_pressure;BME280_temperature;BME280_humidity;BME280_pressure;Samples;Min_cycle;Max_cycle;Signal;HPM_P1;HPM_P2
2022/11/26 00:00:24;;;;;;;5.95;2.60;;;;;;;14.33;86.85;101481.94;2085516;28;20048;-74
2022/11/26 00:01:46;;;;;;;;;;;;;;;14.27;87.21;101490.75;2088920;28;20470;-74
2022/11/26 00:03:08;;;;;;;8.65;1.80;;;;;;;14.27;87.92;101496.06;2079819;28;20234;-75
2022/11/26 00:04:30;;;;;;;9.20;2.60;;;;;;;14.24;88.80;101497.78;2077103;28;20063;-75
2022/11/26 00:05:56;;;;;;;4.97;2.15;;;;;;;14.22;89.06;101496.88;2083549;28;20514;-74
2022/11/26 00:07:21;;;;;;;7.20;3.03;;;;;;;14.22;89.12;101496.88;2086439;28;20056;-75
2022/11/26 00:08:44;;;;;;;10.60;2.88;;;;;;;14.20;88.90;101496.84;2075259;28;20044;-74
2022/11/26 00:10:16;;;;;;;4.75;1.77;;;;;;;14.22;89.13;101497.75;2078686;28;20048;-74
2022/11/26 00:11:38;;;;;;;;;;;;;;;14.17;89.53;101503.91;2076266;28;20053;-75
2022/11/26 00:13:00;;;;;;;7.55;1.98;;;;;;;14.17;90.29;101504.78;2087326;28;19962;-74
2022/11/26 00:14:23;;;;;;;6.30;2.20;;;;;;;14.19;90.84;101511.00;2075889;28;20055;-75
2022/11/26 00:15:44;;;;;;;3.60;1.67;;;;;;;14.19;91.13;101508.34;2087398;28;20056;-74
2022/11/26 00:17:06;;;;;;;6.35;1.83;;;;;;;14.19;91.35;101502.13;2082894;28;20033;-74
2022/11/26 00:18:29;;;;;;;4.28;1.65;;;;;;;14.18;90.36;101506.53;2079597;28;20049;-75
2022/11/26 00:19:51;;;;;;;4.47;1.48;;;;;;;14.19;89.73;101513.66;2083698;28;20056;-74
2022/11/26 00:21:18;;;;;;;5.90;1.75;;;;;;;14.19;89.68;101511.00;2089484;28;20047;-74
2022/11/26 00:22:44;;;;;;;7.07;1.60;;;;;;;14.21;89.74;101511.00;2087672;28;20362;-74
2022/11/26 00:24:23;;;;;;;4.35;1.60;;;;;;;14.23;89.50;101518.16;2089353;28;21433;-74
2022/11/26 00:25:48;;;;;;;4.63;1.80;;;;;;;14.25;89.54;101513.72;2088361;28;20081;-74
2022/11/26 00:27:10;;;;;;;10.85;1.98;;;;;;;14.25;90.03;101518.13;2090260;28;20048;-74
2022/11/26 00:28:35;;;;;;;11.57;1.95;;;;;;;14.25;90.41;101519.03;2075952;28;20130;-74
2022/11/26 00:29:57;;;;;;;3.95;2.00;;;;;;;14.25;90.39;101529.66;2078073;28;20052;-74
2022/11/26 00:31:19;;;;;;;5.65;1.85;;;;;;;14.24;90.55;101517.25;2090323;28;20141;-74
2022/11/26 00:32:41;;;;;;;5.43;1.88;;;;;;;14.25;91.33;101521.69;2086465;28;20057;-74
2022/11/26 00:34:03;;;;;;;6.13;1.83;;;;;;;14.26;91.71;101519.94;2082635;28;20057;-74
2022/11/26 00:35:26;;;;;;;4.43;1.85;;;;;;;14.28;92.15;101520.84;2095898;28;20048;-74
2022/11/26 00:36:48;;;;;;;5.10;1.90;;;;;;;14.27;92.50;101525.25;2088965;28;20040;-74
2022/11/26 00:38:18;;;;;;;7.63;2.53;;;;;;;14.28;92.82;101527.06;2094223;28;20140;-74
2022/11/26 00:39:40;;;;;;;8.10;1.77;;;;;;;14.26;93.32;101520.81;2086020;28;20053;-74
2022/11/26 00:41:03;;;;;;;4.85;1.67;;;;;;;14.25;94.09;101524.34;2098928;28;20052;-74
2022/11/26 00:42:25;;;;;;;5.25;1.50;;;;;;;14.23;94.18;101523.47;2082488;28;20511;-75
2022/11/26 00:43:48;;;;;;;4.80;1.88;;;;;;;14.21;93.94;101513.66;2094734;28;20040;-74
2022/11/26 00:45:14;;;;;;;4.30;1.60;;;;;;;14.21;93.08;101522.53;2087537;28;20052;-75
2022/11/26 00:46:37;;;;;;;6.72;1.30;;;;;;;14.22;91.88;101524.31;2092356;28;20033;-74
2022/11/26 00:48:00;;;;;;;4.78;1.50;;;;;;;14.24;90.90;101527.00;2086282;28;20045;-74
2022/11/26 00:49:23;;;;;;;7.95;1.92;;;;;;;14.22;90.19;101531.41;2082589;28;20080;-74
2022/11/26 00:50:49;;;;;;;4.47;1.50;;;;;;;14.20;90.15;101531.38;2091956;28;20048;-74
2022/11/26 00:52:25;;;;;;;6.90;1.83;;;;;;;14.17;90.54;101528.69;2102838;28;20676;-74
2022/11/26 00:53:50;;;;;;;6.07;1.20;;;;;;;14.17;90.45;101519.81;2096956;28;20097;-74
2022/11/26 00:55:23;;;;;;;4.80;1.48;;;;;;;14.20;90.57;101526.06;2103249;28;20048;-74
2022/11/26 00:56:47;;;;;;;5.57;1.90;;;;;;;14.23;91.10;101526.09;2097004;28;20402;-75
2022/11/26 00:58:21;;;;;;;6.18;1.80;;;;;;;14.27;91.34;101525.25;2089220;28;20579;-74
2022/11/26 00:59:44;;;;;;;5.57;1.73;;;;;;;14.32;91.62;101531.53;2094938;28;20052;-75
2022/11/26 01:01:05;;;;;;;9.07;1.95;;;;;;;14.35;92.01;101528.91;2096743;28;20585;-74
2022/11/26 01:02:28;;;;;;;3.03;1.55;;;;;;;14.39;91.99;101526.31;2094239;28;20156;-74
2022/11/26 01:03:51;;;;;;;5.82;1.90;;;;;;;14.40;92.40;101528.09;2094461;28;20044;-74
2022/11/26 01:05:12;;;;;;;7.55;2.05;;;;;;;14.41;92.45;101532.53;2094129;28;20045;-74
2022/11/26 01:06:37;;;;;;;7.60;2.20;;;;;;;14.43;92.63;101541.44;2102301;28;20508;-74
2022/11/26 01:08:01;;;;;;;7.15;2.08;;;;;;;14.42;92.78;101531.69;2088886;28;20574;-74
2022/11/26 01:09:26;;;;;;;5.07;1.58;;;;;;;14.39;93.15;101534.28;2092179;28;20374;-74
2022/11/26 01:10:47;;;;;;;6.57;2.00;;;;;;;14.38;92.57;101536.03;2094441;28;20048;-74
2022/11/26 01:12:14;;;;;;;8.07;2.00;;;;;;;14.38;92.00;101535.16;2080231;28;20045;-75
2022/11/26 01:13:36;;;;;;;4.35;1.45;;;;;;;14.32;92.06;101534.19;2087036;28;20109;-74
2022/11/26 01:14:58;;;;;;;6.38;1.63;;;;;;;14.31;91.91;101534.16;2096833;28;20048;-74
2022/11/26 01:16:23;;;;;;;5.05;1.95;;;;;;;14.27;92.09;101533.22;2094097;28;20036;-74
2022/11/26 01:17:45;;;;;;;3.20;1.30;;;;;;;14.24;92.58;101532.31;2086470;28;20098;-74
2022/11/26 01:19:12;;;;;;;5.32;1.75;;;;;;;14.23;92.54;101525.22;2088151;28;20493;-74
2022/11/26 01:20:34;;;;;;;4.22;1.55;;;;;;;14.22;92.75;101534.94;2097395;28;20694;-74
2022/11/26 01:21:57;;;;;;;4.72;1.75;;;;;;;14.23;92.71;101526.09;2094036;28;20106;-74
2022/11/26 01:23:21;;;;;;;5.90;1.88;;;;;;;14.24;92.63;101532.31;2094139;28;20057;-75
2022/11/26 01:24:43;;;;;;;6.18;1.63;;;;;;;14.24;92.87;101532.31;2082652;28;20041;-74
2022/11/26 01:26:06;;;;;;;4.82;1.48;;;;;;;14.24;92.90;101527.88;2091049;28;20123;-74
2022/11/26 01:27:28;;;;;;;5.32;1.80;;;;;;;14.23;93.30;101528.75;2093775;28;20090;-74
2022/11/26 01:28:51;;;;;;;4.40;1.25;;;;;;;14.25;93.05;101528.75;2093367;28;20135;-74
2022/11/26 01:30:17;;;;;;;4.18;1.75;;;;;;;14.28;92.31;101529.72;2092539;28;20080;-74
2022/11/26 01:31:40;;;;;;;6.38;2.60;;;;;;;14.30;91.52;101530.63;2088424;28;20059;-73
2022/11/26 01:33:03;;;;;;;6.88;2.33;;;;;;;14.34;91.38;101520.91;2091684;28;20090;-74
2022/11/26 01:34:24;;;;;;;6.00;1.70;;;;;;;14.36;91.68;101532.47;2093847;28;20056;-74
2022/11/26 01:35:47;;;;;;;4.95;1.60;;;;;;;14.37;91.25;101518.31;2091381;28;20413;-74
2022/11/26 01:37:13;;;;;;;6.95;1.73;;;;;;;14.43;90.92;101528.16;2094156;28;20053;-74
2022/11/26 01:38:35;;;;;;;6.75;1.85;;;;;;;14.46;90.46;101531.72;2093605;28;20044;-74
2022/11/26 01:40:00;;;;;;;6.05;2.22;;;;;;;14.47;89.84;101540.59;2094087;28;20048;-74
2022/11/26 01:41:40;;;;;;;8.95;2.25;;;;;;;14.46;89.30;101530.84;2093736;28;20056;-73
2022/11/26 01:43:07;;;;;;;4.53;1.85;;;;;;;14.46;89.29;101520.19;2083292;28;20148;-75
2022/11/26 01:44:31;;;;;;;5.85;1.65;;;;;;;14.47;89.17;101524.66;2094455;28;20056;-74
2022/11/26 01:45:53;;;;;;;5.43;1.75;;;;;;;14.45;89.39;101518.41;2086233;28;20052;-74
2022/11/26 01:47:21;;;;;;;6.55;1.70;;;;;;;14.43;89.63;101512.22;2091350;28;20048;-74
2022/11/26 01:48:44;;;;;;;6.25;1.50;;;;;;;14.44;89.51;101514.88;2093408;28;20099;-74
2022/11/26 01:50:48;;;;;;;6.97;2.40;;;;;;;14.43;89.68;101521.09;2094213;28;20044;-74
2022/11/26 01:52:13;;;;;;;;;;;;;;;14.35;90.20;101510.31;2097226;28;20044;-75
2022/11/26 01:53:41;;;;;;;5.47;1.70;;;;;;;14.35;90.56;101515.63;2086227;28;19955;-75
2022/11/26 01:55:06;;;;;;;5.93;1.70;;;;;;;14.38;90.13;101519.22;2092563;28;20048;-74
2022/11/26 01:56:34;;;;;;;3.80;1.50;;;;;;;14.36;89.84;101522.72;2077040;28;20037;-75
2022/11/26 01:57:55;;;;;;;6.43;1.60;;;;;;;14.36;89.75;101519.19;2092264;28;20063;-74
2022/11/26 01:59:23;;;;;;;3.58;1.65;;;;;;;14.39;89.25;101513.94;2096252;28;20045;-75
2022/11/26 02:00:45;;;;;;;4.10;1.35;;;;;;;14.44;88.92;101524.63;2102905;28;20142;-75
2022/11/26 02:02:08;;;;;;;10.27;2.10;;;;;;;14.47;88.69;101517.56;2096378;28;20047;-74
2022/11/26 02:03:34;;;;;;;4.00;2.08;;;;;;;14.50;88.69;101522.03;2102136;28;20055;-74
2022/11/26 02:05:03;;;;;;;7.63;1.65;;;;;;;14.50;89.01;101525.59;2088314;28;20132;-75
2022/11/26 02:06:31;;;;;;;7.55;1.27;;;;;;;14.46;89.29;101526.41;2098319;28;20181;-74
2022/11/26 02:07:55;;;;;;;6.07;1.30;;;;;;;14.43;89.51;101517.53;2096417;28;20132;-74
2022/11/26 02:09:20;;;;;;;5.05;1.60;;;;;;;14.43;88.77;101533.47;2096076;28;20814;-74
2022/11/26 02:10:43;;;;;;;6.20;1.98;;;;;;;14.45;88.63;101534.34;2080110;28;20045;-75
2022/11/26 02:12:05;;;;;;;4.78;1.58;;;;;;;14.43;88.95;101529.06;2097988;28;20044;-74
2022/11/26 02:13:27;;;;;;;4.38;1.40;;;;;;;14.45;89.39;101537.00;2096694;28;20048;-75
2022/11/26 02:14:49;;;;;;;5.05;1.52;;;;;;;14.47;89.67;101532.63;2093669;28;20131;-74
2022/11/26 02:16:18;;;;;;;5.95;1.67;;;;;;;14.47;90.39;101529.97;2093589;28;20044;-75
2022/11/26 02:17:44;;;;;;;6.75;2.00;;;;;;;14.44;91.12;101530.81;2078794;28;20041;-74
2022/11/26 02:19:35;;;;;;;4.28;1.70;;;;;;;14.43;91.51;101525.50;2089593;28;20471;-75
2022/11/26 02:21:04;;;;;;;4.47;1.70;;;;;;;14.45;91.59;101521.06;2088279;28;20052;-75
2022/11/26 02:22:59;;;;;;;3.85;1.60;;;;;;;14.48;91.02;101516.69;2084293;28;20052;-74
2022/11/26 02:24:47;;;;;;;3.45;1.48;;;;;;;14.51;90.88;101516.72;2065929;28;20490;-74
2022/11/26 02:26:47;;;;;;;6.47;2.22;;;;;;;14.54;91.03;101503.50;2097891;28;20536;-75
2022/11/26 02:28:38;;;;;;;5.72;2.35;;;;;;;14.51;91.72;101497.22;2087878;28;20053;-75
2022/11/26 02:30:16;;;;;;;7.88;2.25;;;;;;;14.45;92.54;101502.47;2096053;28;20070;-75
2022/11/26 02:31:44;;;;;;;7.22;1.98;;;;;;;14.41;92.95;101484.72;2085542;28;20045;-75
2022/11/26 02:33:11;;;;;;;5.47;1.88;;;;;;;14.41;93.17;101482.97;2100950;28;20092;-75
2022/11/26 02:34:43;;;;;;;4.93;1.73;;;;;;;14.40;93.14;101486.50;2092366;28;20139;-74
2022/11/26 02:36:13;;;;;;;4.43;1.73;;;;;;;14.39;93.03;101481.16;2101012;28;20070;-75
2022/11/26 02:37:38;;;;;;;7.60;1.88;;;;;;;14.38;93.06;101487.34;2095737;28;20052;-74
2022/11/26 02:39:11;;;;;;;4.75;1.73;;;;;;;14.38;93.34;101493.53;2085393;28;20111;-75
2022/11/26 02:40:34;;;;;;;6.75;1.85;;;;;;;14.36;93.81;101497.94;2093586;28;20723;-74
2022/11/26 02:41:57;;;;;;;3.60;1.60;;;;;;;14.36;93.97;101496.16;2085214;28;20088;-74
2022/11/26 02:43:20;;;;;;;3.83;1.70;;;;;;;14.35;93.54;101501.47;2094086;28;20053;-74
2022/11/26 02:44:44;;;;;;;4.38;1.67;;;;;;;14.33;93.01;101504.09;2085058;28;20045;-75
2022/11/26 02:46:12;;;;;;;7.25;1.50;;;;;;;14.31;91.48;101512.91;2087695;28;20461;-74
2022/11/26 02:47:37;;;;;;;4.82;1.52;;;;;;;14.31;90.42;101508.47;2083519;28;20041;-75
2022/11/26 02:48:59;;;;;;;4.07;1.48;;;;;;;14.32;89.72;101517.34;2087401;28;20055;-75
2022/11/26 02:50:25;;;;;;;3.20;1.70;;;;;;;14.33;89.44;101522.69;2093492;28;20046;-75
2022/11/26 02:51:51;;;;;;;6.80;1.90;;;;;;;14.33;89.56;101513.81;2085207;28;20056;-75
2022/11/26 02:53:15;;;;;;;4.68;2.00;;;;;;;14.33;89.36;101512.06;2091598;28;20044;-74
2022/11/26 02:54:39;;;;;;;7.15;2.42;;;;;;;14.36;89.07;101511.22;2091477;28;20159;-74
2022/11/26 02:56:05;;;;;;;9.93;2.13;;;;;;;14.43;88.83;101507.78;2093599;28;20071;-75
2022/11/26 02:57:31;;;;;;;4.28;1.95;;;;;;;14.48;89.02;101502.53;2087660;28;20672;-75
2022/11/26 02:58:55;;;;;;;7.22;1.83;;;;;;;14.51;89.35;101499.88;2083067;28;20782;-74
2022/11/26 03:00:18;;;;;;;4.03;1.55;;;;;;;14.51;89.78;101500.78;2097382;28;20182;-74
2022/11/26 03:01:47;;;;;;;5.45;1.70;;;;;;;14.50;90.40;101500.78;2085157;28;20132;-75
2022/11/26 03:03:21;;;;;;;4.63;1.92;;;;;;;14.48;90.60;101491.91;2076171;28;20049;-74
2022/11/26 03:04:47;;;;;;;5.47;1.70;;;;;;;14.46;90.74;101490.97;2085672;28;20501;-74
2022/11/26 03:06:12;;;;;;;5.13;1.55;;;;;;;14.45;90.56;101502.47;2087201;28;20053;-75
2022/11/26 03:07:36;;;;;;;6.10;1.90;;;;;;;14.43;90.40;101502.47;2098793;28;20039;-75
2022/11/26 03:08:59;;;;;;;4.95;1.73;;;;;;;14.43;90.37;101506.91;2084916;28;20098;-74
2022/11/26 03:10:25;;;;;;;4.32;1.80;;;;;;;14.43;90.14;101507.78;2088825;28;20097;-75
2022/11/26 03:11:48;;;;;;;3.15;1.30;;;;;;;14.42;89.80;101505.13;2091918;28;20520;-75
2022/11/26 03:13:10;;;;;;;4.18;1.45;;;;;;;14.43;89.15;101504.25;2090308;28;20635;-75
2022/11/26 03:14:32;;;;;;;8.30;1.95;;;;;;;14.44;88.84;101508.69;2076978;28;20049;-74
2022/11/26 03:15:54;;;;;;;5.57;1.60;;;;;;;14.46;88.75;101509.56;2082350;28;20040;-75
2022/11/26 03:17:18;;;;;;;5.88;1.75;;;;;;;14.47;89.08;101506.94;2093167;28;20044;-75
2022/11/26 03:18:40;;;;;;;5.82;2.08;;;;;;;14.46;89.61;101512.22;2084003;28;20045;-75
2022/11/26 03:20:02;;;;;;;3.65;1.40;;;;;;;14.47;89.86;101498.09;2090681;28;20566;-75
2022/11/26 03:21:25;;;;;;;3.95;1.73;;;;;;;14.47;89.90;101511.38;2084727;28;20049;-75
2022/11/26 03:22:47;;;;;;;4.22;1.58;;;;;;;14.46;89.78;101502.50;2085030;28;20096;-75
2022/11/26 03:24:09;;;;;;;6.47;1.77;;;;;;;14.44;89.71;101512.22;2082751;28;20053;-74
2022/11/26 03:25:32;;;;;;;5.80;1.70;;;;;;;14.42;89.77;101513.97;2082453;28;20060;-75
2022/11/26 03:26:54;;;;;;;6.93;1.60;;;;;;;14.40;89.55;101526.34;2090378;28;20067;-75
2022/11/26 03:28:16;;;;;;;3.15;1.40;;;;;;;14.39;89.19;101528.97;2091879;28;20467;-74
2022/11/26 03:29:38;;;;;;;7.18;1.60;;;;;;;14.38;88.73;101524.53;2093296;28;20125;-75
2022/11/26 03:31:00;;;;;;;6.47;1.77;;;;;;;14.36;88.00;101532.47;2091562;28;20415;-75
2022/11/26 03:32:23;;;;;;;5.22;1.98;;;;;;;14.31;87.84;101529.72;2094579;28;20040;-75
2022/11/26 03:33:45;;;;;;;5.50;2.35;;;;;;;14.27;87.80;101532.34;2084492;28;20396;-75
2022/11/26 03:35:09;;;;;;;4.72;1.50;;;;;;;14.22;88.50;101523.44;2081397;28;20090;-74
2022/11/26 03:36:30;;;;;;;4.18;1.58;;;;;;;14.17;89.20;101527.78;2082327;28;20045;-75
2022/11/26 03:37:53;;;;;;;2.58;1.42;;;;;;;14.10;89.94;101521.50;2079361;28;20084;-74
2022/11/26 03:39:14;;;;;;;4.88;1.80;;;;;;;14.05;90.77;101509.91;2083243;28;20040;-75
2022/11/26 03:40:36;;;;;;;4.85;1.88;;;;;;;14.02;91.50;101507.22;2088916;28;20052;-75
2022/11/26 03:41:58;;;;;;;4.05;1.80;;;;;;;14.01;92.06;101499.25;2092979;28;20064;-75
2022/11/26 03:43:20;;;;;;;5.40;1.88;;;;;;;14.01;92.31;101507.22;2086019;28;20136;-75
2022/11/26 03:44:43;;;;;;;5.03;1.35;;;;;;;14.03;92.02;101506.38;2084682;28;20402;-75
2022/11/26 03:46:06;;;;;;;5.07;1.92;;;;;;;14.07;91.95;101509.94;2073957;28;20045;-75
2022/11/26 03:47:30;;;;;;;3.47;1.70;;;;;;;14.10;91.74;101513.53;2084779;28;20135;-75
2022/11/26 03:48:52;;;;;;;9.32;1.90;;;;;;;14.15;91.72;101516.25;2092399;28;20145;-74
2022/11/26 03:50:14;;;;;;;4.00;1.58;;;;;;;14.22;91.45;101531.41;2085737;28;20057;-75
2022/11/26 03:51:36;;;;;;;8.32;1.80;;;;;;;14.28;90.66;101535.03;2084975;28;20464;-74
2022/11/26 03:52:58;;;;;;;6.35;1.60;;;;;;;14.35;89.92;101536.88;2079361;28;20659;-74
2022/11/26 03:54:19;;;;;;;3.75;1.70;;;;;;;14.40;89.54;101546.69;2090114;28;20078;-75
2022/11/26 03:55:42;;;;;;;6.57;1.67;;;;;;;14.45;89.65;101550.28;2086083;28;20045;-75
2022/11/26 03:57:05;;;;;;;7.40;2.20;;;;;;;14.50;89.90;101553.94;2084810;28;20049;-75
2022/11/26 03:58:27;;;;;;;4.82;1.88;;;;;;;14.57;90.55;101561.09;2082137;28;20500;-75
2022/11/26 03:59:50;;;;;;;7.32;1.83;;;;;;;14.62;91.17;101559.38;2090213;28;20041;-75
2022/11/26 04:01:13;;;;;;;6.85;1.92;;;;;;;14.67;91.85;101555.91;2095426;28;20063;-75
2022/11/26 04:02:36;;;;;;;5.45;2.03;;;;;;;14.72;92.33;101553.28;2094568;28;20040;-74
2022/11/26 04:03:58;;;;;;;6.13;2.05;;;;;;;14.75;92.61;101556.00;2092871;28;20203;-75
2022/11/26 04:05:21;;;;;;;8.07;2.35;;;;;;;14.75;92.86;101558.66;2088463;28;20052;-75
2022/11/26 04:06:44;;;;;;;6.28;2.20;;;;;;;14.75;92.80;101554.22;2088484;28;20053;-75
2022/11/26 04:08:06;;;;;;;7.20;2.08;;;;;;;14.78;92.76;101563.97;2101735;28;20048;-74
2022/11/26 04:09:28;;;;;;;6.07;1.77;;;;;;;14.79;92.38;101567.53;2095649;28;20139;-74
2022/11/26 04:10:50;;;;;;;6.38;2.17;;;;;;;14.79;92.30;101565.78;2083987;28;20033;-75
2022/11/26 04:12:12;;;;;;;5.78;2.10;;;;;;;14.76;92.31;101576.38;2081952;28;20103;-73
2022/11/26 04:13:35;;;;;;;8.98;2.38;;;;;;;14.72;92.84;101572.78;2090621;28;20109;-73
2022/11/26 04:14:56;;;;;;;8.95;2.45;;;;;;;14.70;93.68;101581.63;2086651;28;20115;-74
2022/11/26 04:16:19;;;;;;;5.18;1.70;;;;;;;14.66;94.40;101579.78;2077674;28;20043;-75
2022/11/26 04:17:42;;;;;;;4.20;1.70;;;;;;;14.65;94.60;101588.63;2086498;28;20076;-74
2022/11/26 04:19:04;;;;;;;4.82;1.90;;;;;;;14.61;94.85;101592.16;2092363;28;20083;-74
2022/11/26 04:20:27;;;;;;;6.70;2.30;;;;;;;14.60;94.99;101591.25;2091370;28;20040;-75
2022/11/26 04:21:49;;;;;;;7.43;2.67;;;;;;;14.61;94.04;101587.72;2083414;28;20098;-75
2022/11/26 04:23:11;;;;;;;6.43;2.20;;;;;;;14.63;93.19;101582.44;2084420;28;20037;-75
2022/11/26 04:24:33;;;;;;;6.20;2.55;;;;;;;14.64;92.68;101581.53;2084607;28;20098;-74
2022/11/26 04:25:55;;;;;;;5.25;2.33;;;;;;;14.62;92.15;101576.22;2092460;28;20051;-75
2022/11/26 04:27:17;;;;;;;6.38;2.58;;;;;;;14.61;92.11;101563.81;2092548;28;20070;-74
2022/11/26 04:28:39;;;;;;;6.03;2.03;;;;;;;14.61;92.29;101565.56;2090900;28;20045;-74
2022/11/26 04:30:02;;;;;;;5.50;1.90;;;;;;;14.57;92.56;101566.41;2091723;28;20036;-75
2022/11/26 04:31:24;;;;;;;4.80;1.90;;;;;;;14.54;92.81;101563.72;2076274;28;20053;-75
2022/11/26 04:32:48;;;;;;;4.75;1.80;;;;;;;14.51;92.46;101568.97;2087336;28;20174;-75
2022/11/26 04:34:11;;;;;;;5.03;1.95;;;;;;;14.46;92.34;101562.72;2084762;28;20053;-74
2022/11/26 04:35:32;;;;;;;4.65;1.85;;;;;;;14.42;92.29;101574.19;2093165;28;20045;-76
2022/11/26 04:36:55;;;;;;;6.47;1.80;;;;;;;14.38;91.38;101567.91;2091599;28;20083;-74
2022/11/26 04:38:17;;;;;;;7.80;1.98;;;;;;;14.36;90.38;101574.97;2100210;28;20102;-75
2022/11/26 04:39:39;;;;;;;6.07;1.95;;;;;;;14.37;89.82;101574.09;2095499;28;20469;-74
2022/11/26 04:41:00;;;;;;;5.32;1.90;;;;;;;14.36;89.48;101586.50;2095606;28;20056;-75
2022/11/26 04:42:23;;;;;;;4.90;1.27;;;;;;;14.37;89.38;101584.72;2089280;28;20087;-75
2022/11/26 04:43:45;;;;;;;4.90;1.65;;;;;;;14.39;89.36;101585.66;2092735;28;20440;-75
2022/11/26 04:45:08;;;;;;;7.10;1.60;;;;;;;14.40;89.69;101594.50;2083725;28;20596;-75
2022/11/26 04:46:31;;;;;;;3.78;1.67;;;;;;;14.42;89.61;101595.44;2084365;28;20064;-75
2022/11/26 04:47:55;;;;;;;5.55;1.63;;;;;;;14.45;89.44;101596.34;2080495;28;20052;-74
2022/11/26 04:49:16;;;;;;;3.33;1.70;;;;;;;14.46;89.26;101600.81;2084869;28;20127;-75
2022/11/26 04:50:39;;;;;;;4.53;1.85;;;;;;;14.48;88.98;101598.19;2100927;28;20051;-75
2022/11/26 04:52:01;;;;;;;3.88;1.95;;;;;;;14.49;89.36;101608.81;2091457;28;20061;-74
2022/11/26 04:53:22;;;;;;;4.95;2.28;;;;;;;14.52;89.58;101607.94;2085351;28;20053;-75
2022/11/26 04:54:45;;;;;;;6.78;2.40;;;;;;;14.51;89.57;101612.38;2093663;28;20070;-75
2022/11/26 04:56:06;;;;;;;5.47;2.22;;;;;;;14.54;89.77;101616.84;2088361;28;20057;-75
2022/11/26 04:57:29;;;;;;;4.45;1.85;;;;;;;14.56;89.38;101613.34;2088474;28;20159;-75
2022/11/26 04:58:50;;;;;;;5.50;1.80;;;;;;;14.57;89.60;101608.94;2082657;28;20116;-74
2022/11/26 05:00:14;;;;;;;6.32;1.92;;;;;;;14.57;89.36;101609.78;2092395;28;20091;-75
2022/11/26 05:01:36;;;;;;;8.85;2.15;;;;;;;14.57;89.08;101603.63;2094947;28;20051;-75
2022/11/26 05:02:59;;;;;;;5.22;2.03;;;;;;;14.58;89.17;101606.28;2089327;28;20175;-75
2022/11/26 05:04:21;;;;;;;6.47;1.67;;;;;;;14.57;89.53;101593.00;2080812;28;20045;-75
2022/11/26 05:05:43;;;;;;;7.60;1.80;;;;;;;14.54;89.93;101583.19;2098783;28;20377;-74
2022/11/26 05:07:06;;;;;;;5.35;1.42;;;;;;;14.52;90.29;101586.69;2085497;28;20076;-75
2022/11/26 05:08:28;;;;;;;3.65;1.40;;;;;;;14.49;90.40;101589.34;2091962;28;20048;-75
2022/11/26 05:09:49;;;;;;;7.30;1.40;;;;;;;14.49;90.17;101599.97;2093607;28;20037;-75
2022/11/26 05:11:12;;;;;;;5.65;1.80;;;;;;;14.47;89.82;101604.34;2084797;28;20049;-75
2022/11/26 05:12:33;;;;;;;5.68;1.60;;;;;;;14.44;89.69;101605.19;2085764;28;20110;-74
2022/11/26 05:13:56;;;;;;;5.97;1.73;;;;;;;14.42;89.85;101608.72;2093639;28;20064;-75
2022/11/26 05:15:19;;;;;;;5.75;1.50;;;;;;;14.41;90.02;101613.13;2083606;28;20052;-76
2022/11/26 05:16:41;;;;;;;5.25;1.42;;;;;;;14.42;89.86;101624.66;2093410;28;20558;-74
2022/11/26 05:18:05;;;;;;;5.65;1.45;;;;;;;14.41;89.32;101622.88;2096635;28;20057;-75
2022/11/26 05:19:27;;;;;;;5.93;2.42;;;;;;;14.41;89.01;101628.19;2097912;28;20040;-74
2022/11/26 05:20:49;;;;;;;8.10;2.15;;;;;;;14.43;89.14;101643.28;2087464;28;20425;-75
2022/11/26 05:22:11;;;;;;;6.68;2.50;;;;;;;14.44;88.56;101634.41;2082798;28;20095;-74
2022/11/26 05:23:34;;;;;;;7.68;2.20;;;;;;;14.49;87.90;101645.13;2083256;28;20052;-75
2022/11/26 05:24:56;;;;;;;13.40;1.67;;;;;;;14.54;87.73;101646.06;2096996;28;20049;-75
2022/11/26 05:26:18;;;;;;;3.55;1.95;;;;;;;14.57;87.78;101648.78;2092716;28;20037;-75
2022/11/26 05:27:40;;;;;;;5.13;1.40;;;;;;;14.57;87.93;101656.75;2096989;28;20474;-74
2022/11/26 05:29:02;;;;;;;8.63;1.42;;;;;;;14.56;87.93;101655.88;2086631;28;20172;-75
2022/11/26 05:30:24;;;;;;;5.28;2.00;;;;;;;14.56;87.96;101652.31;2092276;28;20032;-75
2022/11/26 05:31:46;;;;;;;5.28;1.95;;;;;;;14.56;87.97;101642.59;2094220;28;20040;-75
2022/11/26 05:33:09;;;;;;;3.72;1.40;;;;;;;14.57;87.85;101638.16;2102223;28;20040;-75
2022/11/26 05:34:32;;;;;;;6.72;1.75;;;;;;;14.60;87.68;101627.56;2095169;28;20097;-75
2022/11/26 05:35:54;;;;;;;5.32;1.33;;;;;;;14.60;87.96;101624.91;2093771;28;20044;-75
2022/11/26 05:37:16;;;;;;;4.30;1.30;;;;;;;14.61;88.16;101627.59;2085857;28;20048;-75
2022/11/26 05:38:39;;;;;;;4.95;1.65;;;;;;;14.64;87.75;101629.38;2090015;28;20036;-75
2022/11/26 05:40:00;;;;;;;4.43;1.42;;;;;;;14.65;87.54;101628.50;2086526;28;20099;-75
2022/11/26 05:41:22;;;;;;;7.18;3.10;;;;;;;14.65;87.96;101636.47;2085718;28;20056;-75
2022/11/26 05:42:44;;;;;;;6.47;2.40;;;;;;;14.64;88.66;101640.00;2089857;28;20135;-74
2022/11/26 05:44:06;;;;;;;5.90;2.33;;;;;;;14.62;89.29;101647.97;2092888;28;20055;-75
2022/11/26 05:45:28;;;;;;;4.55;1.98;;;;;;;14.61;89.86;101651.50;2084883;28;20056;-75
2022/11/26 05:46:50;;;;;;;4.53;1.60;;;;;;;14.61;90.00;101669.22;2093703;28;20094;-75
2022/11/26 05:48:14;;;;;;;8.48;2.10;;;;;;;14.62;90.13;101666.56;2094229;28;20048;-75
2022/11/26 05:49:35;;;;;;;6.32;2.30;;;;;;;14.65;89.96;101676.34;2102386;28;20097;-74
2022/11/26 05:50:58;;;;;;;8.25;3.15;;;;;;;14.71;89.63;101684.41;2096554;28;20095;-75
2022/11/26 05:52:20;;;;;;;6.95;2.17;;;;;;;14.80;89.21;101692.50;2094323;28;20041;-74
2022/11/26 05:53:42;;;;;;;8.10;1.73;;;;;;;14.88;89.10;101687.28;2091400;28;20048;-75
2022/11/26 05:55:05;;;;;;;6.00;1.92;;;;;;;14.94;89.17;101677.63;2087736;28;20106;-75
2022/11/26 05:56:28;;;;;;;5.22;1.73;;;;;;;15.02;88.31;101675.06;2091483;28;20052;-74
2022/11/26 05:57:50;;;;;;;5.05;2.33;;;;;;;15.14;87.83;101670.78;2084100;28;20056;-75
2022/11/26 05:59:11;;;;;;;5.00;1.90;;;;;;;15.24;87.39;101650.47;2083043;28;20091;-74
2022/11/26 06:00:34;;;;;;;5.65;1.75;;;;;;;15.31;87.65;101662.06;2074912;28;20049;-74
2022/11/26 06:01:55;;;;;;;7.43;1.88;;;;;;;15.34;88.19;101649.72;2097977;28;20524;-74
2022/11/26 06:03:20;;;;;;;6.18;1.58;;;;;;;15.33;89.20;101660.34;2096179;28;20040;-75
2022/11/26 06:04:42;;;;;;;7.65;1.83;;;;;;;15.34;90.15;101662.13;2077712;28;20908;-75
2022/11/26 06:06:04;;;;;;;7.72;1.77;;;;;;;15.34;90.73;101668.34;2080720;28;20136;-75
2022/11/26 06:07:27;;;;;;;5.25;1.40;;;;;;;15.34;91.16;101671.00;2081970;28;20448;-74
2022/11/26 06:08:49;;;;;;;3.03;1.38;;;;;;;15.35;90.94;101683.44;2087415;28;20071;-75
2022/11/26 06:10:13;;;;;;;4.28;1.85;;;;;;;15.38;91.18;101690.53;2090118;28;20048;-75
2022/11/26 06:11:36;;;;;;;6.10;1.85;;;;;;;15.48;91.78;101693.34;2083406;28;20642;-75
2022/11/26 06:12:57;;;;;;;9.07;3.28;;;;;;;15.62;91.68;101689.94;2083957;28;20048;-75
2022/11/26 06:14:20;;;;;;;23.00;11.98;;;;;;;15.77;91.80;101696.28;2099367;28;20105;-75
2022/11/26 06:15:41;;;;;;;11.68;5.20;;;;;;;15.88;91.58;101694.63;2094174;28;20044;-75
2022/11/26 06:17:03;;;;;;;6.47;2.70;;;;;;;15.97;91.16;101688.47;2084892;28;20044;-75
2022/11/26 06:18:28;;;;;;;5.75;3.03;;;;;;;16.06;90.74;101682.34;2086975;28;20246;-75
2022/11/26 06:19:51;;;;;;;5.13;1.80;;;;;;;16.09;90.03;101674.38;2092332;28;20075;-75
2022/11/26 06:21:13;;;;;;;7.32;2.40;;;;;;;16.09;89.66;101677.03;2089242;28;20130;-75
2022/11/26 06:22:38;;;;;;;6.13;1.45;;;;;;;16.10;89.11;101668.16;2087810;28;20512;-75
2022/11/26 06:24:00;;;;;;;3.53;1.90;;;;;;;16.09;88.64;101663.72;2085600;28;20123;-75
2022/11/26 06:25:23;;;;;;;12.05;1.98;;;;;;;16.09;88.54;101661.03;2091184;28;20072;-77
2022/11/26 06:26:45;;;;;;;7.43;2.22;;;;;;;16.08;88.68;101661.97;2091482;28;20139;-74
2022/11/26 06:28:08;;;;;;;7.70;2.58;;;;;;;16.05;89.18;101667.25;2087189;28;20082;-75
2022/11/26 06:29:29;;;;;;;5.82;2.00;;;;;;;16.02;89.87;101675.19;2085556;28;20060;-75
2022/11/26 06:30:52;;;;;;;6.88;2.17;;;;;;;16.03;90.51;101682.31;2093471;28;20071;-75
2022/11/26 06:32:14;;;;;;;4.60;2.35;;;;;;;16.09;90.47;101677.03;2092194;28;20057;-74